createdAt,value
2019-01-14T00:01:58.659Z,99518.90
2019-01-14T00:04:28.468Z,99515.02
2019-01-14T00:06:58.487Z,99519.76
2019-01-14T00:09:31.130Z,99534.77
2019-01-14T00:11:59.872Z,99534.77
2019-01-14T00:14:29.270Z,99539.72
2019-01-14T00:16:59.011Z,99538.66
2019-01-14T00:19:28.481Z,99550.59
2019-01-14T00:21:58.485Z,99551.27
2019-01-14T00:24:28.530Z,99555.88
2019-01-14T00:26:58.485Z,99561.57
2019-01-14T00:29:28.506Z,99575.56
2019-01-14T00:31:58.627Z,99580.19
2019-01-14T00:34:28.954Z,99586.30
2019-01-14T00:36:58.526Z,99576.48
2019-01-14T00:39:28.617Z,99587.72
2019-01-14T00:41:58.526Z,99593.66
2019-01-14T00:44:28.515Z,99617.46
2019-01-14T00:46:58.624Z,99612.34
2019-01-14T00:49:28.492Z,99621.27
2019-01-14T00:51:58.506Z,99627.16
2019-01-14T00:54:28.697Z,99637.45
2019-01-14T00:56:58.539Z,99641.30
2019-01-14T00:59:28.550Z,99644.05
2019-01-14T01:01:58.678Z,99658.98
2019-01-14T01:04:28.505Z,99675.11
2019-01-14T01:06:58.967Z,99673.87
2019-01-14T01:09:28.659Z,99683.70
2019-01-14T01:11:58.587Z,99707.83
2019-01-14T01:14:28.540Z,99696.89
2019-01-14T01:16:58.736Z,99718.04
2019-01-14T01:19:28.570Z,99715.20
2019-01-14T01:21:59.022Z,99738.94
2019-01-14T01:24:28.698Z,99751.56
2019-01-14T01:26:58.598Z,99755.25
2019-01-14T01:29:28.626Z,99792.44
2019-01-14T01:31:58.694Z,99779.13
2019-01-14T01:34:28.644Z,99788.69
2019-01-14T01:36:58.616Z,99782.42
2019-01-14T01:39:28.908Z,99780.23
2019-01-14T01:41:58.600Z,99788.69
2019-01-14T01:44:28.602Z,99794.13
2019-01-14T01:46:58.687Z,99795.91
2019-01-14T01:49:28.629Z,99801.56
2019-01-14T01:51:58.622Z,99808.17
2019-01-14T01:54:28.838Z,99823.71
2019-01-14T01:56:58.609Z,99822.16
2019-01-14T01:59:28.645Z,99831.70
2019-01-14T02:01:58.675Z,99819.29
2019-01-14T02:04:28.669Z,99833.09
2019-01-14T02:06:58.638Z,99832.39
2019-01-14T02:09:28.771Z,99842.18
2019-01-14T02:11:58.628Z,99852.20
2019-01-14T02:14:28.648Z,99848.70
2019-01-14T02:16:59.100Z,99847.91
2019-01-14T02:19:28.658Z,99851.25
2019-01-14T02:21:58.658Z,99847.70
2019-01-14T02:24:28.855Z,99857.33
2019-01-14T02:26:58.673Z,99858.19
2019-01-14T02:29:28.685Z,99860.30
2019-01-14T02:31:58.998Z,99862.70
2019-01-14T02:34:28.687Z,99870.63
2019-01-14T02:36:58.687Z,99873.42
2019-01-14T02:39:28.862Z,99876.70
2019-01-14T02:41:58.678Z,99878.66
2019-01-14T02:44:28.687Z,99894.52
2019-01-14T02:46:58.867Z,99897.56
2019-01-14T02:49:28.723Z,99904.58
2019-01-14T02:52:00.839Z,99902.22
2019-01-14T02:54:30.495Z,99904.86
2019-01-14T02:56:59.914Z,99916.75
2019-01-14T02:59:29.312Z,99907.81
2019-01-14T03:01:58.888Z,99917.02
2019-01-14T03:04:28.787Z,99916.06
2019-01-14T03:06:58.789Z,99915.34
2019-01-14T03:09:28.964Z,99912.63
2019-01-14T03:11:58.767Z,99912.37
2019-01-14T03:14:28.740Z,99919.42
2019-01-14T03:16:58.926Z,99905.11
2019-01-14T03:19:28.826Z,99912.44
2019-01-14T03:21:58.768Z,99907.02
2019-01-14T03:24:28.863Z,99907.02
2019-01-14T03:26:58.805Z,99912.98
2019-01-14T03:29:29.147Z,99917.15
2019-01-14T03:31:58.992Z,99921.98
2019-01-14T03:34:28.806Z,99946.78
2019-01-14T03:37:05.434Z,99939.08
2019-01-14T03:39:30.059Z,99939.98
2019-01-14T03:41:59.443Z,99960.67
2019-01-14T03:44:28.821Z,99997.22
2019-01-14T03:46:58.925Z,99993.04
2019-01-14T03:49:28.841Z,100023.62
2019-01-14T03:51:58.861Z,100027.48
2019-01-14T03:54:29.980Z,100031.65
2019-01-14T03:56:59.382Z,100025.98
2019-01-14T03:59:28.884Z,100041.02
2019-01-14T04:01:58.928Z,100063.23
2019-01-14T04:04:31.364Z,100044.78
2019-01-14T04:07:00.732Z,100037.13
2019-01-14T04:09:30.171Z,100040.37
2019-01-14T04:11:59.596Z,100050.82
2019-01-14T04:14:29.032Z,100041.02
2019-01-14T04:16:59.410Z,100034.66
2019-01-14T04:19:28.901Z,100042.83
2019-01-14T04:21:58.888Z,100061.57
2019-01-14T04:24:29.089Z,100053.48
2019-01-14T04:26:58.926Z,100064.56
2019-01-14T04:29:28.922Z,100061.42
2019-01-14T04:31:59.511Z,100077.20
2019-01-14T04:34:28.932Z,100064.11
2019-01-14T04:36:58.923Z,100069.25
2019-01-14T04:39:29.287Z,100070.53
2019-01-14T04:41:58.926Z,100048.09
2019-01-14T04:44:28.931Z,100046.62
2019-01-14T04:46:59.077Z,100047.56
2019-01-14T04:49:28.970Z,100050.78
2019-01-14T04:51:58.995Z,100044.70
2019-01-14T04:54:29.189Z,100052.00
2019-01-14T04:56:59.019Z,100054.19
2019-01-14T04:59:29.032Z,100064.74
2019-01-14T05:01:59.159Z,100065.12
2019-01-14T05:04:29.036Z,100072.63
2019-01-14T05:06:59.233Z,100081.08
2019-01-14T05:09:30.717Z,100074.17
2019-01-14T05:12:00.074Z,100064.64
2019-01-14T05:14:29.492Z,100097.64
2019-01-14T05:16:59.161Z,100110.77
2019-01-14T05:19:29.309Z,100116.83
2019-01-14T05:21:59.263Z,100126.48
2019-01-14T05:24:29.199Z,100118.15
2019-01-14T05:26:59.129Z,100117.23
2019-01-14T05:29:29.043Z,100115.66
2019-01-14T05:31:59.251Z,100136.02
2019-01-14T05:34:29.250Z,100129.13
2019-01-14T05:36:59.120Z,100126.55
2019-01-14T05:39:29.135Z,100140.20
2019-01-14T05:41:59.073Z,100135.05
2019-01-14T05:44:29.078Z,100145.30
2019-01-14T05:46:59.170Z,100137.91
2019-01-14T05:49:29.109Z,100135.34
2019-01-14T05:51:59.073Z,100149.94
2019-01-14T05:54:29.261Z,100146.16
2019-01-14T05:56:59.118Z,100146.16
2019-01-14T05:59:29.073Z,100140.62
2019-01-14T06:01:59.242Z,100160.67
2019-01-14T06:04:29.107Z,100152.34
2019-01-14T06:06:59.107Z,100161.13
2019-01-14T06:09:29.401Z,100145.56
2019-01-14T06:11:59.125Z,100156.23
2019-01-14T06:14:29.143Z,100149.44
2019-01-14T06:16:59.206Z,100167.12
2019-01-14T06:19:30.968Z,100157.55
2019-01-14T06:22:00.364Z,100159.73
2019-01-14T06:24:29.919Z,100168.10
2019-01-14T06:26:59.346Z,100186.98
2019-01-14T06:29:29.172Z,100174.14
2019-01-14T06:31:59.285Z,100180.73
2019-01-14T06:34:29.174Z,100198.48
2019-01-14T06:36:59.188Z,100194.98
2019-01-14T06:39:29.569Z,100214.84
2019-01-14T06:41:59.180Z,100197.99
2019-01-14T06:44:29.168Z,100224.26
2019-01-14T06:46:59.260Z,100214.38
2019-01-14T06:49:29.199Z,100211.81
2019-01-14T06:51:59.208Z,100208.70
2019-01-14T06:54:29.489Z,100218.00
2019-01-14T06:56:59.228Z,100231.19
2019-01-14T06:59:29.221Z,100229.23
2019-01-14T07:01:59.484Z,100234.81
2019-01-14T07:04:29.243Z,100229.03
2019-01-14T07:06:59.410Z,100243.93
2019-01-14T07:09:29.381Z,100248.34
2019-01-14T07:11:59.529Z,100253.81
2019-01-14T07:14:29.360Z,100258.03
2019-01-14T07:16:59.516Z,100267.73
2019-01-14T07:19:29.362Z,100267.73
2019-01-14T07:21:59.388Z,100296.20
2019-01-14T07:24:29.538Z,100312.00
2019-01-14T07:26:59.376Z,100329.38
2019-01-14T07:29:29.412Z,100311.75
2019-01-14T07:31:59.565Z,100318.30
2019-01-14T07:34:29.477Z,100319.62
2019-01-14T07:36:59.417Z,100318.16
2019-01-14T07:39:29.570Z,100321.52
2019-01-14T07:41:59.857Z,100317.95
2019-01-14T07:44:29.468Z,100329.08
2019-01-14T07:46:59.697Z,100324.00
2019-01-14T07:49:29.481Z,100331.39
2019-01-14T07:51:59.483Z,100337.23
2019-01-14T07:54:29.648Z,100332.00
2019-01-14T07:56:59.593Z,100333.16
2019-01-14T07:59:29.477Z,100349.14
2019-01-14T08:01:59.595Z,100359.16
2019-01-14T08:04:29.538Z,100354.87
2019-01-14T08:06:59.503Z,100373.05
2019-01-14T08:09:29.591Z,100375.13
2019-01-14T08:11:59.523Z,100368.74
2019-01-14T08:14:29.556Z,100370.33
2019-01-14T08:16:59.593Z,100372.70
2019-01-14T08:19:29.548Z,100389.80
2019-01-14T08:21:59.528Z,100404.67
2019-01-14T08:24:29.587Z,100416.84
2019-01-14T08:26:59.527Z,100419.98
2019-01-14T08:29:29.576Z,100415.58
2019-01-14T08:31:59.776Z,100425.67
2019-01-14T08:34:29.607Z,100416.03
2019-01-14T08:37:00.850Z,100423.22
2019-01-14T08:39:30.397Z,100420.04
2019-01-14T08:42:03.530Z,100432.76
2019-01-14T08:44:39.034Z,100429.44
2019-01-14T08:47:08.822Z,100432.19
2019-01-14T08:49:38.233Z,100433.30
2019-01-14T08:52:07.591Z,100430.98
2019-01-14T08:54:37.116Z,100436.08
2019-01-14T08:57:06.514Z,100428.98
2019-01-14T08:59:35.898Z,100428.62
2019-01-14T09:02:05.763Z,100439.22
2019-01-14T09:04:37.834Z,100446.25
2019-01-14T09:07:07.215Z,100446.25
2019-01-14T09:09:36.771Z,100442.70
2019-01-14T09:12:06.154Z,100438.87
2019-01-14T09:14:35.524Z,100438.67
2019-01-14T09:17:05.228Z,100437.55
2019-01-14T09:19:34.632Z,100431.92
2019-01-14T09:22:04.127Z,100422.41
2019-01-14T09:24:33.622Z,100426.43
2019-01-14T09:27:02.984Z,100423.34
2019-01-14T09:29:32.372Z,100420.94
2019-01-14T09:32:02.311Z,100426.59
2019-01-14T09:34:31.973Z,100434.50
2019-01-14T09:37:01.336Z,100441.10
2019-01-14T09:39:30.927Z,100444.52
2019-01-14T09:42:00.291Z,100453.03
2019-01-14T09:44:29.699Z,100460.79
2019-01-14T09:46:59.827Z,100467.70
2019-01-14T09:49:29.815Z,100460.92
2019-01-14T09:51:59.693Z,100472.70
2019-01-14T09:54:29.764Z,100470.38
2019-01-14T09:56:59.691Z,100464.23
2019-01-14T09:59:29.677Z,100476.88
2019-01-14T10:01:59.881Z,100484.06
2019-01-14T10:04:29.793Z,100497.05
2019-01-14T10:06:59.696Z,100502.17
2019-01-14T10:09:29.894Z,100484.25
2019-01-14T10:11:59.748Z,100498.91
2019-01-14T10:14:29.738Z,100503.58
2019-01-14T10:17:00.269Z,100502.64
2019-01-14T10:19:30.131Z,100499.62
2019-01-14T10:22:00.128Z,100502.06
2019-01-14T10:24:30.312Z,100496.69
2019-01-14T10:27:00.192Z,100499.55
2019-01-14T10:29:30.208Z,100495.98
2019-01-14T10:32:00.387Z,100480.72
2019-01-14T10:34:30.231Z,100489.73
2019-01-14T10:37:00.172Z,100491.63
2019-01-14T10:39:30.247Z,100505.90
2019-01-14T10:42:04.948Z,100499.43
2019-01-14T10:44:31.307Z,100496.22
2019-01-14T10:47:00.746Z,100502.69
2019-01-14T10:49:30.207Z,100512.91
2019-01-14T10:52:00.587Z,100518.73
2019-01-14T10:54:30.451Z,100524.16
2019-01-14T10:57:00.296Z,100521.88
2019-01-14T10:59:30.231Z,100525.72
2019-01-14T11:02:00.419Z,100514.78
2019-01-14T11:04:30.268Z,100527.84
2019-01-14T11:07:00.227Z,100519.04
2019-01-14T11:09:30.345Z,100528.86
2019-01-14T11:12:00.330Z,100528.42
2019-01-14T11:14:30.310Z,100533.92
2019-01-14T11:17:00.430Z,100535.31
2019-01-14T11:19:30.480Z,100529.16
2019-01-14T11:22:00.382Z,100526.47
2019-01-14T11:24:49.878Z,100533.94
2019-01-14T11:27:20.242Z,100533.25
2019-01-14T11:29:52.968Z,100545.74
2019-01-14T11:32:23.078Z,100562.44
2019-01-14T11:34:52.748Z,100566.49
2019-01-14T11:37:22.136Z,100568.15
2019-01-14T11:39:51.671Z,100574.09
2019-01-14T11:42:21.039Z,100569.70
2019-01-14T11:44:50.482Z,100581.62
2019-01-14T11:47:22.023Z,100579.20
2019-01-14T11:49:51.643Z,100583.34
2019-01-14T11:52:21.049Z,100570.28
2019-01-14T11:54:50.959Z,100592.14
2019-01-14T11:57:20.446Z,100585.16
2019-01-14T11:59:49.860Z,100606.50
2019-01-14T12:02:19.432Z,100594.05
2019-01-14T12:04:48.806Z,100609.94
2019-01-14T12:07:18.203Z,100600.79
2019-01-14T12:09:47.735Z,100600.78
2019-01-14T12:12:17.095Z,100620.00
2019-01-14T12:14:46.474Z,100616.41
2019-01-14T12:17:16.083Z,100621.23
2019-01-14T12:19:45.455Z,100613.89
2019-01-14T12:22:14.838Z,100610.37
2019-01-14T12:24:44.259Z,100602.03
2019-01-14T12:27:13.625Z,100610.16
2019-01-14T12:29:43.033Z,100617.05
2019-01-14T12:32:12.505Z,100614.66
2019-01-14T12:34:41.886Z,100630.25
2019-01-14T12:37:11.381Z,100628.12
2019-01-14T12:39:40.840Z,100620.91
2019-01-14T12:42:11.054Z,100624.06
2019-01-14T12:44:40.488Z,100631.92
2019-01-14T12:47:10.028Z,100638.84
2019-01-14T12:49:39.407Z,100647.17
2019-01-14T12:52:08.842Z,100633.84
2019-01-14T12:54:40.875Z,100642.16
2019-01-14T12:57:10.252Z,100639.84
2019-01-14T12:59:39.888Z,100658.05
2019-01-14T13:02:09.421Z,100661.23
2019-01-14T13:04:38.795Z,100662.78
2019-01-14T13:07:08.202Z,100667.81
2019-01-14T13:09:38.613Z,100662.95
2019-01-14T13:12:08.162Z,100662.30
2019-01-14T13:14:37.563Z,100664.94
2019-01-14T13:17:09.646Z,100675.80
2019-01-14T13:19:39.039Z,100678.21
2019-01-14T13:22:08.529Z,100690.89
2019-01-14T13:24:39.497Z,100684.80
2019-01-14T13:27:08.888Z,100688.46
2019-01-14T13:29:38.283Z,100688.20
2019-01-14T13:32:07.880Z,100700.95
2019-01-14T13:34:37.635Z,100702.52
2019-01-14T13:37:07.275Z,100708.36
2019-01-14T13:39:36.958Z,100699.19
2019-01-14T13:42:06.610Z,100719.08
2019-01-14T13:44:36.044Z,100716.31
2019-01-14T13:47:07.060Z,100716.38
2019-01-14T13:49:36.531Z,100719.20
2019-01-14T13:52:06.013Z,100726.62
2019-01-14T13:54:35.635Z,100722.91
2019-01-14T13:57:05.247Z,100724.67
2019-01-14T13:59:34.647Z,100726.92
2019-01-14T14:02:04.332Z,100731.58
2019-01-14T14:04:33.950Z,100730.14
2019-01-14T14:07:03.353Z,100741.13
2019-01-14T14:09:32.857Z,100745.89
2019-01-14T14:12:02.260Z,100745.20
2019-01-14T14:14:31.757Z,100749.27
2019-01-14T14:17:01.496Z,100756.31
2019-01-14T14:19:30.998Z,100755.42
2019-01-14T14:22:00.692Z,100751.83
2019-01-14T14:24:30.977Z,100754.16
2019-01-14T14:27:00.698Z,100772.02
2019-01-14T14:29:30.712Z,100764.83
2019-01-14T14:32:00.761Z,100770.44
2019-01-14T14:34:30.727Z,100777.70
2019-01-14T14:37:00.716Z,100779.89
2019-01-14T14:39:30.864Z,100791.95
2019-01-14T14:42:00.759Z,100792.45
2019-01-14T14:44:30.811Z,100802.84
2019-01-14T14:47:01.379Z,100803.47
2019-01-14T14:49:30.871Z,100802.39
2019-01-14T14:52:00.867Z,100806.86
2019-01-14T14:54:30.951Z,100805.06
2019-01-14T14:57:00.782Z,100815.96
2019-01-14T14:59:30.777Z,100816.27
2019-01-14T15:02:00.821Z,100812.16
2019-01-14T15:04:30.985Z,100825.43
2019-01-14T15:07:01.035Z,100827.40
2019-01-14T15:09:31.714Z,100826.00
2019-01-14T15:12:01.293Z,100832.84
2019-01-14T15:14:31.156Z,100842.10
2019-01-14T15:17:01.122Z,100847.91
2019-01-14T15:19:31.073Z,100845.66
2019-01-14T15:22:01.055Z,100848.86
2019-01-14T15:24:31.315Z,100851.44
2019-01-14T15:27:01.025Z,100849.98
2019-01-14T15:29:31.082Z,100846.67
2019-01-14T15:32:01.162Z,100851.89
2019-01-14T15:34:31.039Z,100849.23
2019-01-14T15:37:01.076Z,100843.78
2019-01-14T15:39:31.139Z,100851.30
2019-01-14T15:42:01.137Z,100851.38
2019-01-14T15:44:31.107Z,100860.05
2019-01-14T15:47:01.250Z,100872.13
2019-01-14T15:49:31.147Z,100870.31
2019-01-14T15:52:01.146Z,100867.36
2019-01-14T15:54:31.432Z,100873.95
2019-01-14T15:57:01.112Z,100868.73
2019-01-14T15:59:31.149Z,100878.45
2019-01-14T16:02:01.227Z,100879.98
2019-01-14T16:04:31.182Z,100883.83
2019-01-14T16:07:01.182Z,100886.73
2019-01-14T16:09:31.763Z,100898.25
2019-01-14T16:12:01.189Z,100900.31
2019-01-14T16:14:31.196Z,100906.80
2019-01-14T16:17:01.767Z,100911.49
2019-01-14T16:19:31.219Z,100901.78
2019-01-14T16:22:01.199Z,100911.63
2019-01-14T16:24:31.241Z,100919.88
2019-01-14T16:27:02.075Z,100909.22
2019-01-14T16:29:31.506Z,100919.31
2019-01-14T16:32:01.492Z,100914.09
2019-01-14T16:34:33.350Z,100915.26
2019-01-14T16:37:02.807Z,100920.80
2019-01-14T16:39:32.450Z,100922.56
2019-01-14T16:42:02.537Z,100929.70
2019-01-14T16:44:32.523Z,100924.98
2019-01-14T16:47:02.723Z,100928.76
2019-01-14T16:49:32.642Z,100932.72
2019-01-14T16:52:02.552Z,100936.62
2019-01-14T16:54:32.609Z,100936.22
2019-01-14T16:57:02.576Z,100935.95
2019-01-14T16:59:32.599Z,100943.98
2019-01-14T17:02:02.735Z,100943.55
2019-01-14T17:04:32.667Z,100941.23
2019-01-14T17:07:02.589Z,100936.52
2019-01-14T17:09:32.811Z,100944.54
2019-01-14T17:12:02.619Z,100951.34
2019-01-14T17:14:32.874Z,100952.77
2019-01-14T17:17:02.691Z,100968.42
2019-01-14T17:19:32.599Z,100965.58
2019-01-14T17:22:02.601Z,100966.50
2019-01-14T17:24:35.013Z,100960.62
2019-01-14T17:27:04.541Z,100975.63
2019-01-14T17:29:33.950Z,100977.59
2019-01-14T17:32:03.602Z,100990.22
2019-01-14T17:34:33.046Z,100993.73
2019-01-14T17:37:02.897Z,101000.72
2019-01-14T17:39:32.779Z,100996.87
2019-01-14T17:42:02.970Z,101005.12
2019-01-14T17:44:32.644Z,101007.75
2019-01-14T17:47:02.735Z,101001.66
2019-01-14T17:49:32.654Z,101002.69
2019-01-14T17:52:02.700Z,101006.44
2019-01-14T17:54:32.749Z,101008.73
2019-01-14T17:57:02.704Z,101017.19
2019-01-14T17:59:32.690Z,101025.22
2019-01-14T18:02:03.170Z,101027.14
2019-01-14T18:04:32.730Z,101038.67
2019-01-14T18:07:02.668Z,101038.67
2019-01-14T18:09:32.857Z,101041.20
2019-01-14T18:12:02.742Z,101043.35
2019-01-14T18:14:32.707Z,101051.36
2019-01-14T18:17:03.261Z,101045.59
2019-01-14T18:19:32.724Z,101050.00
2019-01-14T18:22:02.708Z,101050.44
2019-01-14T18:24:32.968Z,101054.05
2019-01-14T18:27:02.725Z,101062.12
2019-01-14T18:29:32.734Z,101062.95
2019-01-14T18:32:02.786Z,101069.88
2019-01-14T18:34:32.772Z,101070.27
2019-01-14T18:37:02.751Z,101061.74
2019-01-14T18:39:32.936Z,101070.33
2019-01-14T18:42:02.788Z,101077.13
2019-01-14T18:44:32.766Z,101072.17
2019-01-14T18:47:02.949Z,101073.94
2019-01-14T18:49:32.771Z,101070.70
2019-01-14T18:52:02.788Z,101079.55
2019-01-14T18:54:33.075Z,101084.78
2019-01-14T18:57:02.790Z,101091.91
2019-01-14T18:59:32.817Z,101080.77
2019-01-14T19:02:02.933Z,101076.42
2019-01-14T19:04:32.791Z,101074.80
2019-01-14T19:07:02.899Z,101084.55
2019-01-14T19:09:32.950Z,101073.28
2019-01-14T19:12:02.825Z,101075.31
2019-01-14T19:14:32.900Z,101087.25
2019-01-14T19:17:02.889Z,101091.92
2019-01-14T19:19:32.815Z,101105.14
2019-01-14T19:22:03.135Z,101099.49
2019-01-14T19:24:33.017Z,101088.52
2019-01-14T19:27:02.808Z,101103.76
2019-01-14T19:29:33.108Z,101110.43
2019-01-14T19:32:03.017Z,101111.80
2019-01-14T19:34:32.837Z,101120.36
2019-01-14T19:37:02.850Z,101118.23
2019-01-14T19:39:32.996Z,101132.20
2019-01-14T19:42:02.926Z,101133.62
2019-01-14T19:44:32.857Z,101136.37
2019-01-14T19:47:03.101Z,101142.52
2019-01-14T19:49:33.670Z,101136.37
2019-01-14T19:52:03.238Z,101139.70
2019-01-14T19:54:33.077Z,101140.09
2019-01-14T19:57:02.932Z,101142.73
2019-01-14T19:59:32.926Z,101144.43
2019-01-14T20:02:03.009Z,101142.37
2019-01-14T20:04:32.897Z,101148.87
2019-01-14T20:07:10.260Z,101141.76
2019-01-14T20:09:34.234Z,101151.06
2019-01-14T20:12:03.707Z,101147.70
2019-01-14T20:14:33.112Z,101146.70
2019-01-14T20:17:03.101Z,101150.08
2019-01-14T20:19:32.968Z,101155.70
2019-01-14T20:22:02.921Z,101151.09
2019-01-14T20:24:35.157Z,101153.73
2019-01-14T20:27:04.963Z,101149.41
2019-01-14T20:29:35.333Z,101148.50
2019-01-14T20:32:05.138Z,101150.89
2019-01-14T20:34:34.599Z,101148.42
2019-01-14T20:37:03.967Z,101154.76
2019-01-14T20:39:33.492Z,101152.88
2019-01-14T20:42:03.021Z,101161.05
2019-01-14T20:44:32.985Z,101151.11
2019-01-14T20:47:03.013Z,101149.50
2019-01-14T20:49:32.966Z,101150.60
2019-01-14T20:52:03.047Z,101150.31
2019-01-14T20:54:33.232Z,101154.41
2019-01-14T20:57:02.982Z,101161.41
2019-01-14T20:59:34.505Z,101164.39
2019-01-14T21:02:04.377Z,101157.40
2019-01-14T21:04:33.800Z,101174.56
2019-01-14T21:07:03.198Z,101162.73
2019-01-14T21:09:33.144Z,101172.10
2019-01-14T21:12:03.056Z,101166.27
2019-01-14T21:14:33.164Z,101177.28
2019-01-14T21:17:03.181Z,101164.89
2019-01-14T21:19:33.121Z,101169.96
2019-01-14T21:22:03.215Z,101174.56
2019-01-14T21:24:33.291Z,101179.23
2019-01-14T21:27:03.284Z,101177.92
2019-01-14T21:29:33.093Z,101172.92
2019-01-14T21:32:03.258Z,101179.73
2019-01-14T21:34:33.152Z,101181.98
2019-01-14T21:37:03.127Z,101180.98
2019-01-14T21:39:33.303Z,101187.30
2019-01-14T21:42:03.160Z,101186.98
2019-01-14T21:44:33.166Z,101191.39
2019-01-14T21:47:03.417Z,101188.38
2019-01-14T21:49:33.140Z,101190.57
2019-01-14T21:52:03.192Z,101190.57
2019-01-14T21:54:33.344Z,101183.65
2019-01-14T21:57:03.112Z,101187.45
2019-01-14T21:59:33.158Z,101197.52
2019-01-14T22:02:03.376Z,101195.21
2019-01-14T22:04:33.148Z,101191.64
2019-01-14T22:07:03.137Z,101198.30
2019-01-14T22:09:33.207Z,101198.89
2019-01-14T22:12:03.226Z,101202.31
2019-01-14T22:14:33.192Z,101198.46
2019-01-14T22:17:03.285Z,101202.15
2019-01-14T22:19:33.180Z,101205.61
2019-01-14T22:22:03.313Z,101204.23
2019-01-14T22:24:33.233Z,101199.94
2019-01-14T22:27:03.233Z,101197.19
2019-01-14T22:29:33.197Z,101203.80
2019-01-14T22:32:03.629Z,101191.78
2019-01-14T22:34:33.271Z,101192.39
2019-01-14T22:37:03.219Z,101203.46
2019-01-14T22:39:33.456Z,101202.02
2019-01-14T22:42:03.219Z,101208.67
2019-01-14T22:44:33.200Z,101205.03
2019-01-14T22:47:03.379Z,101201.72
2019-01-14T22:49:33.242Z,101194.38
2019-01-14T22:52:03.208Z,101199.22
2019-01-14T22:54:33.276Z,101200.11
2019-01-14T22:57:03.210Z,101197.79
2019-01-14T22:59:33.256Z,101205.72
2019-01-14T23:02:03.429Z,101196.98
2019-01-14T23:04:33.208Z,101204.86
2019-01-14T23:07:03.273Z,101206.61
2019-01-14T23:09:33.359Z,101209.14
2019-01-14T23:12:03.397Z,101224.06
2019-01-14T23:14:33.239Z,101208.71
2019-01-14T23:17:03.358Z,101216.06
2019-01-14T23:19:33.216Z,101212.30
2019-01-14T23:22:03.205Z,101227.23
2019-01-14T23:24:33.327Z,101226.84
2019-01-14T23:27:03.328Z,101227.09
2019-01-14T23:29:33.237Z,101230.89
2019-01-14T23:32:03.323Z,101229.89
2019-01-14T23:34:33.246Z,101229.89
2019-01-14T23:37:03.605Z,101224.20
2019-01-14T23:39:33.422Z,101223.05
2019-01-14T23:42:03.276Z,101218.48
2019-01-14T23:44:33.277Z,101219.81
2019-01-14T23:47:03.363Z,101222.75
2019-01-14T23:49:33.278Z,101218.70
2019-01-14T23:52:03.307Z,101222.98
2019-01-14T23:54:37.114Z,101220.61
2019-01-14T23:57:04.568Z,101218.64
2019-01-14T23:59:33.973Z,101222.28
